Time;durP1;ratioP1;P1;durP2;ratioP2;P2;SDS_P1;SDS_P2;PMS_P1;PMS_P2;Temp;Humidity;BMP_temperature;BMP_pressure;BME280_temperature;BME280_humidity;BME280_pressure;Samples;Min_cycle;Max_cycle;Signal;HPM_P1;HPM_P2
2022/10/19 00:01:35;;;;;;;12.23;2.33;;;12.50;99.90;;;;;;5032294;28;20045;-68
2022/10/19 00:04:01;;;;;;;12.65;2.58;;;12.50;99.90;;;;;;5048982;28;20048;-69
2022/10/19 00:06:28;;;;;;;7.32;2.10;;;12.40;99.90;;;;;;5076972;28;20055;-69
2022/10/19 00:08:59;;;;;;;15.97;2.80;;;12.40;99.90;;;;;;5060982;28;20130;-68
2022/10/19 00:11:25;;;;;;;12.10;2.20;;;12.40;99.90;;;;;;5081086;28;20572;-69
2022/10/19 00:13:51;;;;;;;8.82;2.00;;;12.40;99.90;;;;;;5068376;28;20044;-69
2022/10/19 00:16:17;;;;;;;12.90;2.15;;;12.40;99.90;;;;;;5048847;28;20899;-69
2022/10/19 00:18:44;;;;;;;14.68;2.90;;;12.40;99.90;;;;;;5065830;28;20040;-68
2022/10/19 00:21:14;;;;;;;9.65;2.20;;;12.30;99.90;;;;;;5068501;28;20903;-69
2022/10/19 00:23:40;;;;;;;9.80;2.13;;;12.40;99.90;;;;;;5048237;28;20049;-69
2022/10/19 00:26:06;;;;;;;14.35;2.15;;;12.30;99.90;;;;;;5059117;28;20048;-68
2022/10/19 00:28:31;;;;;;;8.07;2.28;;;12.30;99.90;;;;;;5076154;28;20071;-69
2022/10/19 00:31:04;;;;;;;8.82;2.15;;;12.30;99.90;;;;;;5042763;28;20048;-69
2022/10/19 00:33:30;;;;;;;10.73;2.33;;;12.40;99.90;;;;;;5055750;28;20044;-69
2022/10/19 00:35:55;;;;;;;9.32;1.98;;;12.40;99.90;;;;;;5075973;28;20046;-69
2022/10/19 00:38:21;;;;;;;10.88;2.28;;;12.30;99.90;;;;;;5055004;28;20082;-69
2022/10/19 00:40:47;;;;;;;10.63;2.20;;;12.20;99.90;;;;;;5082169;28;20047;-69
2022/10/19 00:43:18;;;;;;;14.25;2.35;;;12.20;99.90;;;;;;5073916;28;20060;-69
2022/10/19 00:45:44;;;;;;;12.10;2.33;;;12.20;99.90;;;;;;5062373;28;20056;-69
2022/10/19 00:48:11;;;;;;;7.20;2.22;;;12.30;99.90;;;;;;5041735;28;20470;-69
2022/10/19 00:50:37;;;;;;;12.32;1.80;;;12.20;99.90;;;;;;5061928;28;20078;-69
2022/10/19 00:53:03;;;;;;;7.60;1.80;;;12.30;99.90;;;;;;5076888;28;20040;-69
2022/10/19 00:55:29;;;;;;;8.85;1.67;;;12.30;99.90;;;;;;5065346;28;20036;-70
2022/10/19 00:57:54;;;;;;;9.65;2.00;;;12.30;99.90;;;;;;5086286;28;20044;-69
2022/10/19 01:00:20;;;;;;;11.50;1.73;;;12.30;99.90;;;;;;5055263;28;20040;-69
2022/10/19 01:02:46;;;;;;;9.02;1.55;;;12.30;99.90;;;;;;5091847;28;20126;-69
2022/10/19 01:05:12;;;;;;;11.95;1.73;;;12.30;99.90;;;;;;5069216;28;20045;-68
2022/10/19 01:07:38;;;;;;;11.45;1.83;;;12.40;99.90;;;;;;5083796;28;20048;-69
2022/10/19 01:10:04;;;;;;;9.13;1.73;;;12.30;99.90;;;;;;5078399;28;20048;-69
2022/10/19 01:12:36;;;;;;;9.55;1.58;;;12.30;99.90;;;;;;5084032;28;20052;-68
2022/10/19 01:15:17;;;;;;;5.18;1.40;;;12.30;99.90;;;;;;5078865;28;20573;-69
2022/10/19 01:17:55;;;;;;;10.23;1.73;;;12.20;99.90;;;;;;5083883;28;20044;-69
2022/10/19 01:20:39;;;;;;;10.57;1.50;;;12.30;99.90;;;;;;5060087;28;20040;-69
2022/10/19 01:23:36;;;;;;;8.35;1.50;;;12.30;99.90;;;;;;5093492;28;20691;-69
2022/10/19 01:26:07;;;;;;;7.57;1.50;;;12.40;99.90;;;;;;5089813;28;20044;-69
2022/10/19 01:29:02;;;;;;;8.05;1.60;;;12.40;99.90;;;;;;5073588;28;20051;-70
2022/10/19 01:31:40;;;;;;;8.82;1.55;;;12.40;99.90;;;;;;5087395;28;20048;-70
2022/10/19 01:34:13;;;;;;;7.72;2.17;;;12.40;99.90;;;;;;5054745;28;20569;-69
2022/10/19 01:36:47;;;;;;;9.68;1.42;;;12.40;99.90;;;;;;5048915;28;20136;-69
2022/10/19 01:39:16;;;;;;;6.95;1.48;;;12.40;99.90;;;;;;5087935;28;20082;-69
2022/10/19 01:41:45;;;;;;;8.45;1.40;;;12.40;99.90;;;;;;5084456;28;20052;-70
2022/10/19 01:44:32;;;;;;;9.93;1.92;;;12.40;99.90;;;;;;5081924;28;20732;-70
2022/10/19 01:47:01;;;;;;;12.93;2.40;;;12.30;99.90;;;;;;5086132;28;20441;-71
2022/10/19 01:49:51;;;;;;;9.27;1.65;;;12.10;99.90;;;;;;5071077;28;20056;-68
2022/10/19 01:52:19;;;;;;;9.65;2.17;;;12.20;99.90;;;;;;5056479;28;20113;-69
2022/10/19 01:54:47;;;;;;;8.43;2.08;;;12.10;99.90;;;;;;5047673;28;20170;-69
2022/10/19 01:57:22;;;;;;;10.73;1.80;;;12.10;99.90;;;;;;5068691;28;20134;-69
2022/10/19 01:59:48;;;;;;;8.68;1.88;;;12.20;99.90;;;;;;5067134;28;20044;-68
2022/10/19 02:02:14;;;;;;;11.38;1.90;;;12.30;99.90;;;;;;5073676;28;20515;-68
2022/10/19 02:04:40;;;;;;;7.28;1.88;;;12.30;99.90;;;;;;5067452;28;20048;-68
2022/10/19 02:07:05;;;;;;;8.52;1.65;;;12.30;99.90;;;;;;5064624;28;20099;-68
2022/10/19 02:09:32;;;;;;;11.48;2.40;;;12.30;99.90;;;;;;5060179;28;20051;-69
2022/10/19 02:12:08;;;;;;;10.55;1.60;;;12.30;99.90;;;;;;5036202;28;20044;-69
2022/10/19 02:14:38;;;;;;;11.25;1.90;;;12.30;99.90;;;;;;5069917;28;20048;-68
2022/10/19 02:17:08;;;;;;;14.50;2.20;;;12.30;99.90;;;;;;5067335;28;20058;-68
2022/10/19 02:19:34;;;;;;;5.93;1.58;;;12.30;99.90;;;;;;5064234;28;20734;-69
2022/10/19 02:22:00;;;;;;;5.45;1.48;;;12.40;99.90;;;;;;5066685;28;20659;-69
2022/10/19 02:24:25;;;;;;;4.45;1.40;;;12.40;99.90;;;;;;5071138;28;20048;-68
2022/10/19 02:26:51;;;;;;;17.02;2.45;;;12.30;99.90;;;;;;5082922;28;20055;-69
2022/10/19 02:29:17;;;;;;;7.05;1.90;;;12.30;99.90;;;;;;5047078;28;20045;-69
2022/10/19 02:31:44;;;;;;;6.72;1.42;;;12.30;99.90;;;;;;5053155;28;20053;-69
2022/10/19 02:34:09;;;;;;;9.13;1.40;;;12.40;99.90;;;;;;5059789;28;20117;-68
2022/10/19 02:36:35;;;;;;;7.47;1.63;;;12.30;99.90;;;;;;5066698;28;20517;-68
2022/10/19 02:39:01;;;;;;;7.00;1.48;;;12.40;99.90;;;;;;5064659;28;20433;-69
2022/10/19 02:41:34;;;;;;;5.63;1.52;;;12.40;99.90;;;;;;5051561;28;20049;-69
2022/10/19 02:44:02;;;;;;;6.60;1.60;;;12.30;99.90;;;;;;5062510;28;20131;-69
2022/10/19 02:46:33;;;;;;;7.85;1.92;;;12.30;99.90;;;;;;5071772;28;20076;-70
2022/10/19 02:49:00;;;;;;;9.43;1.73;;;12.30;99.90;;;;;;5053259;28;20074;-69
2022/10/19 02:51:28;;;;;;;7.43;1.83;;;12.30;99.90;;;;;;5082423;28;20048;-69
2022/10/19 02:53:53;;;;;;;4.70;1.35;;;12.30;99.90;;;;;;5040604;28;20131;-69
2022/10/19 02:56:19;;;;;;;9.07;1.40;;;12.30;99.90;;;;;;5090819;28;20451;-69
2022/10/19 02:58:45;;;;;;;6.53;1.55;;;12.30;99.90;;;;;;5052473;28;20049;-69
2022/10/19 03:01:11;;;;;;;7.40;1.83;;;12.30;99.90;;;;;;5088334;28;20055;-69
2022/10/19 03:03:37;;;;;;;8.70;2.00;;;12.20;99.90;;;;;;5071999;28;20370;-69
2022/10/19 03:06:02;;;;;;;9.13;1.58;;;12.10;99.90;;;;;;5069894;28;20155;-69
2022/10/19 03:08:28;;;;;;;6.65;1.65;;;12.20;99.90;;;;;;5052041;28;20381;-69
2022/10/19 03:10:57;;;;;;;7.55;1.63;;;12.20;99.90;;;;;;5077299;28;20052;-69
2022/10/19 03:13:23;;;;;;;6.00;1.55;;;12.20;99.90;;;;;;5073149;28;20040;-69
2022/10/19 03:15:49;;;;;;;7.40;1.98;;;12.20;99.90;;;;;;5087801;28;20445;-68
2022/10/19 03:18:15;;;;;;;11.75;2.45;;;12.30;99.90;;;;;;5085823;28;20114;-69
2022/10/19 03:20:41;;;;;;;8.40;1.67;;;12.20;99.90;;;;;;5085553;28;20040;-69
2022/10/19 03:23:06;;;;;;;8.55;1.55;;;12.20;99.90;;;;;;5069710;28;20533;-69
2022/10/19 03:25:32;;;;;;;10.63;2.13;;;12.20;99.90;;;;;;5035781;28;20040;-69
2022/10/19 03:27:58;;;;;;;11.23;2.63;;;12.20;99.90;;;;;;5082034;28;20071;-69
2022/10/19 03:30:24;;;;;;;7.63;2.00;;;12.20;99.90;;;;;;5054513;28;20055;-70
2022/10/19 03:32:49;;;;;;;10.20;2.30;;;12.20;99.90;;;;;;5068383;28;20045;-69
2022/10/19 03:35:15;;;;;;;8.52;2.50;;;12.20;99.90;;;;;;5035715;28;20044;-69
2022/10/19 03:37:41;;;;;;;10.52;2.30;;;12.20;99.90;;;;;;5068917;28;20041;-69
2022/10/19 03:40:07;;;;;;;7.75;2.17;;;12.20;99.90;;;;;;5089517;28;20132;-69
2022/10/19 03:42:33;;;;;;;9.00;2.67;;;12.20;99.90;;;;;;5071817;28;20040;-69
2022/10/19 03:44:58;;;;;;;9.48;1.70;;;12.20;99.90;;;;;;5062862;28;20048;-69
2022/10/19 03:47:24;;;;;;;6.10;1.63;;;12.20;99.90;;;;;;5052547;28;20630;-72
2022/10/19 03:49:50;;;;;;;9.75;1.80;;;12.20;99.90;;;;;;5080811;28;20051;-69
2022/10/19 03:52:19;;;;;;;8.63;1.55;;;12.20;99.90;;;;;;5035535;28;20083;-69
2022/10/19 03:54:45;;;;;;;8.68;1.80;;;12.20;99.90;;;;;;5090955;28;20515;-68
2022/10/19 03:57:11;;;;;;;10.75;1.60;;;12.30;99.90;;;;;;5068953;28;20040;-68
2022/10/19 03:59:37;;;;;;;6.82;1.40;;;12.30;99.90;;;;;;5085444;28;20177;-68
2022/10/19 04:02:03;;;;;;;9.27;1.48;;;12.30;99.90;;;;;;5085711;28;20544;-69
2022/10/19 04:04:28;;;;;;;7.15;1.48;;;12.30;99.90;;;;;;5074813;28;20128;-68
2022/10/19 04:06:56;;;;;;;8.90;1.75;;;12.30;99.90;;;;;;5077791;28;20126;-68
2022/10/19 04:09:22;;;;;;;6.35;1.70;;;12.30;99.90;;;;;;5085975;28;20083;-69
2022/10/19 04:11:48;;;;;;;8.07;2.25;;;12.30;99.90;;;;;;5077626;28;20447;-69
2022/10/19 04:14:15;;;;;;;7.10;1.70;;;12.30;99.90;;;;;;5053547;28;20142;-69
2022/10/19 04:16:40;;;;;;;10.45;2.00;;;12.20;99.90;;;;;;5039215;28;20045;-69
2022/10/19 04:19:06;;;;;;;7.72;1.67;;;12.10;99.90;;;;;;5051667;28;20734;-69
2022/10/19 04:21:36;;;;;;;9.60;2.13;;;12.20;99.90;;;;;;5044780;28;20059;-69
2022/10/19 04:24:07;;;;;;;9.55;2.00;;;12.20;99.90;;;;;;5036528;28;20055;-69
2022/10/19 04:26:33;;;;;;;9.75;2.08;;;12.20;99.90;;;;;;5069276;28;20054;-69
2022/10/19 04:29:00;;;;;;;7.63;1.70;;;12.20;99.90;;;;;;5063607;28;20098;-68
2022/10/19 04:31:26;;;;;;;8.15;1.75;;;12.20;99.90;;;;;;5091090;28;20154;-68
2022/10/19 04:33:53;;;;;;;8.95;1.75;;;12.20;99.90;;;;;;5029090;28;20774;-68
2022/10/19 04:36:20;;;;;;;12.40;2.33;;;12.30;99.90;;;;;;5080333;28;20056;-68
2022/10/19 04:38:46;;;;;;;6.72;1.83;;;12.30;99.90;;;;;;5068790;28;20100;-68
2022/10/19 04:41:13;;;;;;;8.75;2.00;;;12.20;99.90;;;;;;5063838;28;20052;-68
2022/10/19 04:43:39;;;;;;;9.15;1.77;;;12.20;99.90;;;;;;5068283;28;20071;-69
2022/10/19 04:46:07;;;;;;;8.50;1.50;;;12.20;99.90;;;;;;5071167;28;20080;-69
2022/10/19 04:48:33;;;;;;;7.38;1.50;;;12.20;99.90;;;;;;5053985;28;20040;-68
2022/10/19 04:50:59;;;;;;;6.22;1.60;;;12.20;99.90;;;;;;5077885;28;20048;-69
2022/10/19 04:53:25;;;;;;;8.65;1.60;;;12.20;99.90;;;;;;5067140;28;20090;-68
2022/10/19 04:55:51;;;;;;;6.53;1.45;;;12.20;99.90;;;;;;5037071;28;20035;-69
2022/10/19 04:58:16;;;;;;;7.57;1.70;;;12.20;99.90;;;;;;5051397;28;20074;-70
2022/10/19 05:00:42;;;;;;;7.15;1.98;;;12.20;99.90;;;;;;5066075;28;20040;-69
2022/10/19 05:03:08;;;;;;;12.73;2.50;;;12.20;99.90;;;;;;5075658;28;20046;-69
2022/10/19 05:05:35;;;;;;;8.85;1.90;;;12.20;99.90;;;;;;5062934;28;20062;-69
2022/10/19 05:08:01;;;;;;;7.18;2.08;;;12.10;99.90;;;;;;5081268;28;20044;-69
2022/10/19 05:10:27;;;;;;;11.13;2.28;;;12.20;99.90;;;;;;5032151;28;20040;-68
2022/10/19 05:12:52;;;;;;;9.80;2.00;;;12.10;99.90;;;;;;5085502;28;20109;-69
2022/10/19 05:15:18;;;;;;;7.00;1.90;;;12.20;99.90;;;;;;5084416;28;20040;-70
2022/10/19 05:17:44;;;;;;;16.75;2.80;;;12.20;99.90;;;;;;5051359;28;20439;-69
2022/10/19 05:20:10;;;;;;;8.40;2.03;;;12.20;99.90;;;;;;5068010;28;20055;-69
2022/10/19 05:22:37;;;;;;;11.25;2.25;;;12.20;99.90;;;;;;5064940;28;20044;-69
2022/10/19 05:25:03;;;;;;;9.95;2.22;;;12.20;99.90;;;;;;5041532;28;20072;-69
2022/10/19 05:27:29;;;;;;;5.68;2.00;;;12.10;99.90;;;;;;5086950;28;20051;-69
2022/10/19 05:29:55;;;;;;;7.88;2.00;;;12.10;99.90;;;;;;5082515;28;20043;-69
2022/10/19 05:32:21;;;;;;;8.75;2.38;;;12.10;99.90;;;;;;5064788;28;20481;-69
2022/10/19 05:34:46;;;;;;;10.98;2.25;;;12.20;99.90;;;;;;5027652;28;20040;-69
2022/10/19 05:37:12;;;;;;;6.75;1.63;;;12.20;99.90;;;;;;5065442;28;20055;-69
2022/10/19 05:39:38;;;;;;;8.75;1.67;;;12.10;99.90;;;;;;5072273;28;20078;-68
2022/10/19 05:42:03;;;;;;;13.38;1.90;;;12.10;99.90;;;;;;5078898;28;20079;-69
2022/10/19 05:44:29;;;;;;;10.35;1.95;;;12.20;99.90;;;;;;5067455;28;20044;-69
2022/10/19 05:46:55;;;;;;;9.73;1.80;;;12.20;99.90;;;;;;5054753;28;20078;-76
2022/10/19 05:49:21;;;;;;;10.90;1.92;;;12.10;99.90;;;;;;5069905;28;20044;-77
2022/10/19 05:51:47;;;;;;;11.25;1.58;;;12.20;99.90;;;;;;5071334;28;20462;-75
2022/10/19 05:54:13;;;;;;;7.63;1.60;;;12.20;99.90;;;;;;5087214;28;20051;-75
2022/10/19 05:56:39;;;;;;;10.65;1.85;;;12.20;99.90;;;;;;5088814;28;20106;-76
2022/10/19 05:59:06;;;;;;;9.88;1.90;;;12.20;99.90;;;;;;5056995;28;20040;-76
2022/10/19 06:01:32;;;;;;;6.88;1.88;;;12.20;99.90;;;;;;5041779;28;20044;-76
2022/10/19 06:03:58;;;;;;;9.13;2.20;;;12.10;99.90;;;;;;5070942;28;20515;-76
2022/10/19 06:06:24;;;;;;;10.07;1.90;;;12.10;99.90;;;;;;5076626;28;20105;-76
2022/10/19 06:08:50;;;;;;;6.72;2.13;;;12.10;99.90;;;;;;5067356;28;20049;-75
2022/10/19 06:11:17;;;;;;;9.48;1.90;;;12.10;99.90;;;;;;5085098;28;20055;-75
2022/10/19 06:13:44;;;;;;;8.50;2.00;;;12.10;99.90;;;;;;5064112;28;20048;-74
2022/10/19 06:16:10;;;;;;;7.15;2.00;;;12.10;99.90;;;;;;5074441;28;20051;-73
2022/10/19 06:18:36;;;;;;;7.55;2.08;;;12.10;99.90;;;;;;5074296;28;20036;-74
2022/10/19 06:21:03;;;;;;;9.98;2.50;;;12.10;99.90;;;;;;5084748;28;20067;-75
2022/10/19 06:23:30;;;;;;;8.55;1.67;;;12.10;99.90;;;;;;5086194;28;20054;-76
2022/10/19 06:26:00;;;;;;;14.25;2.65;;;12.10;99.90;;;;;;5072915;28;20127;-76
2022/10/19 06:28:26;;;;;;;13.07;2.42;;;12.10;99.90;;;;;;5050642;28;20052;-68
2022/10/19 06:30:52;;;;;;;9.32;1.73;;;12.10;99.90;;;;;;5057771;28;20044;-68
2022/10/19 06:33:17;;;;;;;11.68;2.10;;;12.10;99.90;;;;;;5068705;28;20135;-68
2022/10/19 06:35:43;;;;;;;15.60;2.20;;;12.10;99.90;;;;;;5082298;28;20140;-68
2022/10/19 06:38:09;;;;;;;11.02;2.10;;;12.10;99.90;;;;;;5090300;28;20085;-68
2022/10/19 06:40:35;;;;;;;9.02;1.75;;;12.10;99.90;;;;;;5090793;28;20036;-69
2022/10/19 06:43:01;;;;;;;11.00;1.88;;;12.20;99.90;;;;;;5053172;28;20525;-68
2022/10/19 06:45:26;;;;;;;7.57;2.00;;;12.10;99.90;;;;;;5053095;28;20067;-69
2022/10/19 06:47:52;;;;;;;12.75;2.10;;;12.20;99.90;;;;;;5059215;28;20054;-68
2022/10/19 06:50:19;;;;;;;12.05;2.30;;;12.20;99.90;;;;;;5072128;28;20788;-68
2022/10/19 06:52:45;;;;;;;16.50;2.40;;;12.20;99.90;;;;;;5067772;28;20749;-69
2022/10/19 06:55:11;;;;;;;9.50;2.38;;;12.20;99.90;;;;;;5063185;28;20059;-69
2022/10/19 06:57:36;;;;;;;10.65;2.20;;;12.30;99.90;;;;;;5052653;28;20556;-68
2022/10/19 07:00:04;;;;;;;10.70;2.10;;;12.30;99.90;;;;;;5082808;28;20040;-68
2022/10/19 07:02:29;;;;;;;14.95;2.38;;;12.30;99.90;;;;;;5082529;28;20449;-68
2022/10/19 07:04:55;;;;;;;10.00;1.85;;;12.30;99.90;;;;;;5082792;28;20055;-68
2022/10/19 07:07:21;;;;;;;7.47;1.77;;;12.30;99.90;;;;;;5076651;28;20040;-68
2022/10/19 07:09:47;;;;;;;9.10;2.05;;;12.40;99.90;;;;;;5056262;28;20043;-68
2022/10/19 07:12:13;;;;;;;5.70;1.50;;;12.40;99.90;;;;;;5069015;28;20072;-68
2022/10/19 07:14:39;;;;;;;9.20;1.83;;;12.40;99.90;;;;;;5061249;28;20101;-68
2022/10/19 07:17:09;;;;;;;9.98;1.90;;;12.40;99.90;;;;;;5084736;28;20059;-70
2022/10/19 07:19:35;;;;;;;12.35;2.03;;;12.50;99.90;;;;;;5088139;28;20048;-69
2022/10/19 07:22:00;;;;;;;8.30;1.60;;;12.50;99.90;;;;;;5057078;28;20040;-71
2022/10/19 07:24:26;;;;;;;12.05;2.22;;;12.50;99.90;;;;;;5077994;28;20401;-70
2022/10/19 07:26:52;;;;;;;5.53;1.40;;;12.60;99.90;;;;;;5082858;28;20052;-71
2022/10/19 07:29:18;;;;;;;10.88;1.85;;;12.60;99.90;;;;;;5081843;28;20079;-71
2022/10/19 07:31:44;;;;;;;9.48;1.90;;;12.70;99.90;;;;;;5079369;28;20511;-72
2022/10/19 07:34:11;;;;;;;7.68;1.40;;;12.70;99.90;;;;;;5093459;28;20600;-71
2022/10/19 07:36:36;;;;;;;8.80;1.70;;;12.70;99.90;;;;;;5042839;28;20185;-71
2022/10/19 07:39:04;;;;;;;6.90;1.60;;;12.70;99.90;;;;;;5078847;28;20135;-71
2022/10/19 07:41:30;;;;;;;7.43;1.67;;;12.70;99.90;;;;;;5025068;28;20052;-72
2022/10/19 07:43:56;;;;;;;9.85;1.70;;;12.70;99.90;;;;;;5081874;28;20055;-70
2022/10/19 07:46:24;;;;;;;10.25;1.80;;;12.80;99.90;;;;;;5044668;28;20086;-72
2022/10/19 07:48:49;;;;;;;9.97;2.57;;;12.80;99.90;;;;;;5071595;28;20059;-72
2022/10/19 07:51:16;;;;;;;8.90;2.10;;;12.80;99.90;;;;;;5047514;28;20363;-72
2022/10/19 07:53:42;;;;;;;7.18;1.45;;;12.80;99.90;;;;;;5077316;28;20757;-72
2022/10/19 07:56:12;;;;;;;9.63;1.60;;;12.80;99.90;;;;;;5048667;28;20040;-73
2022/10/19 07:58:38;;;;;;;6.90;1.48;;;12.80;99.90;;;;;;5064517;28;20078;-72
2022/10/19 08:01:14;;;;;;;11.50;1.50;;;12.70;99.90;;;;;;5061582;28;20047;-72
2022/10/19 08:03:40;;;;;;;5.72;1.70;;;12.70;99.90;;;;;;5061110;28;20048;-72
2022/10/19 08:06:13;;;;;;;6.57;1.33;;;12.80;99.90;;;;;;5079302;28;20652;-72
2022/10/19 08:08:39;;;;;;;10.18;1.98;;;12.80;99.90;;;;;;5077872;28;20051;-72
2022/10/19 08:11:11;;;;;;;10.27;2.22;;;12.80;99.90;;;;;;5045016;28;20548;-72
2022/10/19 08:13:38;;;;;;;10.50;1.65;;;12.90;99.90;;;;;;5053277;28;20151;-72
2022/10/19 08:16:04;;;;;;;6.40;1.60;;;12.90;99.90;;;;;;5052414;28;20056;-71
2022/10/19 08:18:30;;;;;;;6.38;1.40;;;12.90;99.90;;;;;;5061867;28;20044;-71
2022/10/19 08:20:56;;;;;;;10.18;1.70;;;12.90;99.90;;;;;;5035879;28;20048;-71
2022/10/19 08:23:22;;;;;;;6.75;1.40;;;12.90;99.90;;;;;;5079195;28;20559;-71
2022/10/19 08:25:48;;;;;;;9.63;1.65;;;12.90;99.90;;;;;;5081010;28;20422;-71
2022/10/19 08:28:14;;;;;;;9.95;1.60;;;12.90;99.90;;;;;;5077385;28;20056;-71
2022/10/19 08:30:40;;;;;;;12.75;2.05;;;13.00;99.90;;;;;;5050940;28;20044;-71
2022/10/19 08:33:07;;;;;;;16.08;1.90;;;12.90;99.90;;;;;;5061252;28;20481;-71
2022/10/19 08:35:34;;;;;;;10.43;1.92;;;13.00;99.90;;;;;;5045520;28;20052;-71
2022/10/19 08:37:59;;;;;;;13.25;1.52;;;13.00;99.60;;;;;;5061247;28;20467;-71
2022/10/19 08:40:27;;;;;;;8.15;1.67;;;13.00;99.90;;;;;;5065542;28;20131;-71
2022/10/19 08:43:10;;;;;;;10.23;1.52;;;13.00;99.90;;;;;;5083205;28;20765;-71
2022/10/19 08:45:37;;;;;;;8.65;1.48;;;13.10;99.50;;;;;;5058688;28;20056;-71
2022/10/19 08:48:22;;;;;;;11.05;1.63;;;13.00;99.70;;;;;;5080103;28;20044;-71
2022/10/19 08:50:48;;;;;;;8.10;1.55;;;13.10;99.60;;;;;;5065790;28;20055;-71
2022/10/19 08:53:23;;;;;;;8.30;1.50;;;13.20;99.70;;;;;;5052654;28;20045;-72
2022/10/19 08:55:59;;;;;;;7.88;1.70;;;13.20;98.70;;;;;;5041468;28;20044;-71
2022/10/19 08:59:02;;;;;;;8.35;1.65;;;13.20;98.80;;;;;;5081747;28;20075;-71
2022/10/19 09:01:46;;;;;;;7.18;1.48;;;13.20;98.00;;;;;;5084163;28;20126;-71
2022/10/19 09:04:14;;;;;;;6.57;1.85;;;13.20;97.70;;;;;;5066673;28;20131;-65
2022/10/19 09:07:12;;;;;;;7.72;1.63;;;13.20;96.90;;;;;;5082129;28;20113;-66
2022/10/19 09:09:43;;;;;;;7.43;1.60;;;13.20;97.10;;;;;;5072377;28;20040;-67
2022/10/19 09:12:09;;;;;;;7.40;2.05;;;13.20;96.80;;;;;;5057603;28;20049;-66
2022/10/19 09:14:50;;;;;;;9.43;1.90;;;13.20;96.10;;;;;;5068817;28;20059;-66
2022/10/19 09:17:16;;;;;;;8.60;1.70;;;13.30;96.50;;;;;;5072006;28;20351;-66
2022/10/19 09:19:42;;;;;;;13.10;1.90;;;13.30;96.90;;;;;;5044333;28;20051;-65
2022/10/19 09:22:18;;;;;;;6.82;1.75;;;13.40;96.30;;;;;;5091940;28;20055;-65
2022/10/19 09:24:51;;;;;;;7.88;1.75;;;13.40;96.00;;;;;;5055330;28;20121;-64
2022/10/19 09:27:25;;;;;;;7.78;1.90;;;13.40;95.20;;;;;;5068622;28;20052;-64
2022/10/19 09:29:58;;;;;;;9.35;2.28;;;13.40;96.00;;;;;;5071225;28;20056;-66
2022/10/19 09:32:34;;;;;;;9.05;2.35;;;13.60;95.50;;;;;;5072914;28;20044;-66
2022/10/19 09:35:04;;;;;;;7.45;2.10;;;13.70;95.40;;;;;;5061869;28;20051;-65
2022/10/19 09:37:31;;;;;;;8.70;2.38;;;13.80;94.20;;;;;;5068290;28;20172;-65
2022/10/19 09:39:57;;;;;;;8.43;2.13;;;13.80;94.30;;;;;;5054300;28;20044;-66
2022/10/19 09:42:35;;;;;;;8.55;2.00;;;13.90;94.60;;;;;;5084159;28;20056;-66
2022/10/19 09:45:01;;;;;;;;;;;14.00;94.00;;;;;;5039180;28;20056;-66
2022/10/19 09:47:36;;;;;;;8.98;2.13;;;14.10;94.10;;;;;;5090510;28;19982;-67
2022/10/19 09:50:25;;;;;;;12.13;2.22;;;14.20;94.60;;;;;;5085470;28;20047;-65
2022/10/19 09:52:51;;;;;;;6.68;2.35;;;14.20;93.90;;;;;;5068377;28;20048;-65
2022/10/19 09:55:41;;;;;;;6.97;2.20;;;14.30;93.60;;;;;;5085549;28;20121;-65
2022/10/19 09:58:12;;;;;;;8.40;2.50;;;14.30;93.80;;;;;;5063833;28;20051;-66
2022/10/19 10:00:42;;;;;;;8.32;2.33;;;14.40;93.90;;;;;;5081106;28;20069;-65
2022/10/19 10:03:31;;;;;;;5.40;2.47;;;14.50;94.20;;;;;;5065336;28;20557;-68
2022/10/19 10:06:12;;;;;;;8.75;2.80;;;14.70;93.20;;;;;;5047499;28;20048;-68
2022/10/19 10:08:49;;;;;;;8.77;2.45;;;14.90;93.00;;;;;;5048631;28;20079;-69
2022/10/19 10:11:22;;;;;;;7.55;2.70;;;15.00;92.50;;;;;;5067789;28;20048;-69
2022/10/19 10:13:49;;;;;;;6.50;2.10;;;15.30;91.40;;;;;;5049417;28;20050;-69
2022/10/19 10:16:16;;;;;;;6.82;2.17;;;15.50;90.10;;;;;;5062064;28;20048;-69
2022/10/19 10:18:58;;;;;;;5.28;2.20;;;15.90;90.90;;;;;;5063644;28;20469;-69
2022/10/19 10:21:26;;;;;;;7.45;2.17;;;16.10;90.70;;;;;;5062708;28;20773;-69
2022/10/19 10:24:19;;;;;;;6.90;1.67;;;16.50;90.20;;;;;;5072303;28;20153;-69
2022/10/19 10:26:46;;;;;;;5.57;2.00;;;16.70;89.40;;;;;;5077435;28;20389;-69
2022/10/19 10:29:25;;;;;;;7.93;2.10;;;17.00;88.90;;;;;;5077444;28;20055;-69
2022/10/19 10:31:58;;;;;;;8.00;2.03;;;17.30;89.30;;;;;;5072631;28;20051;-68
2022/10/19 10:34:36;;;;;;;6.28;1.85;;;17.20;78.30;;;;;;5051787;28;20547;-69
2022/10/19 10:37:06;;;;;;;4.63;1.80;;;17.50;85.30;;;;;;5050277;28;20048;-70
2022/10/19 10:39:32;;;;;;;6.38;1.90;;;18.10;81.50;;;;;;5055794;28;20044;-69
2022/10/19 10:42:04;;;;;;;6.07;1.50;;;18.20;82.10;;;;;;5037556;28;20742;-71
2022/10/19 10:44:32;;;;;;;7.40;1.95;;;18.10;82.10;;;;;;5065072;28;20504;-69
2022/10/19 10:46:59;;;;;;;8.52;1.65;;;18.40;80.40;;;;;;5088422;28;20101;-69
2022/10/19 10:49:27;;;;;;;6.15;1.33;;;19.10;76.50;;;;;;5055585;28;20511;-70
2022/10/19 10:52:16;;;;;;;4.95;1.50;;;19.90;74.40;;;;;;5039785;28;20056;-72
2022/10/19 10:55:00;;;;;;;5.07;1.63;;;20.20;72.00;;;;;;5047462;28;20610;-70
2022/10/19 10:57:37;;;;;;;6.50;1.35;;;21.10;72.60;;;;;;5070395;28;20056;-70
2022/10/19 11:00:14;;;;;;;4.97;1.53;;;22.00;68.10;;;;;;5087731;28;20122;-69
2022/10/19 11:03:07;;;;;;;8.60;1.98;;;22.00;66.60;;;;;;5064538;28;20127;-69
2022/10/19 11:05:35;;;;;;;5.47;1.83;;;22.00;66.80;;;;;;5078592;28;20379;-69
2022/10/19 11:08:38;;;;;;;6.40;1.70;;;21.40;67.90;;;;;;5062248;28;20105;-69
2022/10/19 11:11:12;;;;;;;4.55;1.25;;;20.90;68.00;;;;;;5079955;28;20043;-70
2022/10/19 11:13:59;;;;;;;7.82;1.90;;;20.20;69.00;;;;;;5079561;28;20045;-70
2022/10/19 11:16:34;;;;;;;7.60;1.83;;;20.10;71.90;;;;;;5074665;28;20039;-69
2022/10/19 11:19:28;;;;;;;6.57;1.58;;;19.40;69.40;;;;;;5044771;28;20127;-70
2022/10/19 11:22:14;;;;;;;6.05;1.50;;;19.20;70.80;;;;;;5067172;28;20469;-69
2022/10/19 11:24:49;;;;;;;6.80;1.50;;;18.40;69.70;;;;;;5073632;28;20072;-69
2022/10/19 11:27:34;;;;;;;5.65;1.38;;;18.20;74.20;;;;;;5067382;28;20135;-70
2022/10/19 11:30:12;;;;;;;5.35;1.30;;;18.00;74.80;;;;;;5089027;28;20072;-69
2022/10/19 11:32:57;;;;;;;8.25;1.52;;;17.70;75.00;;;;;;5074401;28;20052;-69
2022/10/19 11:35:41;;;;;;;7.05;1.73;;;17.40;77.20;;;;;;5069490;28;20046;-69
2022/10/19 11:38:19;;;;;;;7.25;1.30;;;17.20;77.40;;;;;;5087821;28;20082;-68
2022/10/19 11:40:51;;;;;;;4.97;1.40;;;17.10;77.90;;;;;;5089287;28;20054;-71
2022/10/19 11:43:20;;;;;;;10.88;1.73;;;16.80;78.60;;;;;;5081940;28;20048;-71
2022/10/19 11:46:03;;;;;;;7.80;1.75;;;16.70;80.30;;;;;;5073838;28;20060;-70
2022/10/19 11:48:53;;;;;;;7.05;1.70;;;16.60;80.70;;;;;;5054699;28;20044;-69
2022/10/19 11:51:39;;;;;;;5.03;1.25;;;16.40;80.20;;;;;;5068349;28;20113;-69
2022/10/19 11:54:28;;;;;;;2.97;1.00;;;16.00;80.30;;;;;;5063050;28;20121;-69
2022/10/19 11:57:22;;;;;;;5.10;1.33;;;16.10;81.40;;;;;;5067485;28;20446;-69
2022/10/19 12:00:13;;;;;;;8.63;1.70;;;16.20;81.80;;;;;;5036901;28;20045;-69
2022/10/19 12:03:15;;;;;;;9.38;1.85;;;16.00;82.00;;;;;;5084394;28;20071;-69
2022/10/19 12:06:16;;;;;;;6.60;1.48;;;16.00;82.50;;;;;;5085039;28;20135;-69
2022/10/19 12:09:04;;;;;;;5.95;1.40;;;16.00;82.50;;;;;;5005571;28;20045;-69
2022/10/19 12:11:56;;;;;;;7.20;2.08;;;16.00;84.20;;;;;;5075776;28;20135;-69
2022/10/19 12:14:27;;;;;;;7.07;1.20;;;15.90;83.70;;;;;;5068847;28;20102;-71
2022/10/19 12:16:55;;;;;;;6.13;1.67;;;15.80;83.40;;;;;;5065963;28;20041;-69
2022/10/19 12:19:25;;;;;;;6.13;1.50;;;15.70;83.60;;;;;;5065255;28;20488;-69
2022/10/19 12:21:53;;;;;;;7.22;2.08;;;15.70;83.60;;;;;;5064402;28;20800;-70
2022/10/19 12:24:20;;;;;;;9.77;2.08;;;15.60;83.30;;;;;;5071127;28;20073;-69
2022/10/19 12:26:46;;;;;;;5.95;1.75;;;15.60;83.90;;;;;;5067890;28;20651;-69
2022/10/19 12:29:15;;;;;;;8.80;1.48;;;15.80;85.10;;;;;;5065856;28;20154;-69
2022/10/19 12:31:40;;;;;;;6.10;1.17;;;16.30;86.20;;;;;;5054325;28;20048;-69
2022/10/19 12:34:09;;;;;;;7.25;1.45;;;17.10;83.20;;;;;;5051047;28;20049;-70
2022/10/19 12:36:44;;;;;;;6.53;1.40;;;18.40;80.20;;;;;;5063163;28;20418;-69
2022/10/19 12:39:23;;;;;;;4.72;1.10;;;17.90;78.80;;;;;;5083979;28;20048;-69
2022/10/19 12:41:58;;;;;;;12.82;1.60;;;17.20;77.70;;;;;;5075352;28;20040;-69
2022/10/19 12:44:30;;;;;;;6.53;1.30;;;16.80;80.80;;;;;;5086094;28;20859;-69
2022/10/19 12:46:59;;;;;;;5.30;1.40;;;16.30;80.30;;;;;;5080183;28;20132;-69
2022/10/19 12:49:37;;;;;;;6.22;1.40;;;16.30;83.10;;;;;;5048102;28;20469;-69
2022/10/19 12:52:03;;;;;;;5.07;1.30;;;16.30;83.50;;;;;;5045671;28;20048;-69
2022/10/19 12:54:33;;;;;;;6.45;1.60;;;17.80;82.60;;;;;;5063208;28;20139;-70
2022/10/19 12:57:00;;;;;;;3.90;1.17;;;19.10;77.70;;;;;;5040223;28;20045;-67
2022/10/19 12:59:30;;;;;;;3.63;1.10;;;19.80;72.10;;;;;;5036634;28;20519;-67
2022/10/19 13:01:56;;;;;;;4.03;1.08;;;20.90;67.70;;;;;;5086561;28;20044;-68